ETSL

Lechfeld Airport

Germany
METAR ETSL 210320Z 20002KT 9999 FEW060 SCT300 14/12 Q1021 BLU+
Observed Flight Rules
Aug-21 @ 03:20 UTC (50 minutes ago) Visual Flight Rules
Wind Visibility Clouds
200° at 2 knots 10,000+ meters
  • Few at 6,000' AGL
  • Scattered at 30,000' AGL
Temperatures Readings
Current 14°C / 57°F
Dewpoint 12°C / 54°F
Humidity 88%
Altimeter 30.15" Hg
Pressure 1021 hPa
Elevation 562
METAR ETSL 210320Z 20002KT 9999 FEW060 SCT300 14/12 Q1021 BLU+
Observed Flight Rules
Aug-21 @ 03:20 UTC
(50 minutes ago)
VFR
Wind Visibility
200° at 2 knots 10,000+ meters
Clouds
  • Few at 6,000' AGL
  • Scattered at 30,000' AGL
Temperature Dewpoint
14°C / 57°F 12°C / 54°F
Humidity Altimeter Pressure
88% 30.15" Hg 1021 hPa